createdAt,value
2022-08-11T00:01:53.847Z,102362.03
2022-08-11T00:04:24.836Z,102363.84
2022-08-11T00:06:52.914Z,102365.84
2022-08-11T00:09:22.413Z,102361.13
2022-08-11T00:11:52.568Z,102357.94
2022-08-11T00:14:23.067Z,102359.31
2022-08-11T00:17:01.371Z,102358.34
2022-08-11T00:20:12.401Z,102357.81
2022-08-11T00:22:21.559Z,102362.88
2022-08-11T00:24:53.342Z,102359.53
2022-08-11T00:27:34.558Z,102369.63
2022-08-11T00:30:01.369Z,102367.66
2022-08-11T00:32:28.816Z,102366.75
2022-08-11T00:35:50.907Z,102369.72
2022-08-11T00:37:49.593Z,102366.06
2022-08-11T00:40:24.103Z,102365.47
2022-08-11T00:43:21.537Z,102370.25
2022-08-11T00:46:13.979Z,102370.16
2022-08-11T00:49:07.032Z,102371.81
2022-08-11T00:52:03.774Z,102372.81
2022-08-11T00:55:07.883Z,102367.47
2022-08-11T00:57:47.487Z,102372.34
2022-08-11T01:00:19.875Z,102364.97
2022-08-11T01:03:05.987Z,102373.84
2022-08-11T01:05:38.591Z,102363.94
2022-08-11T01:08:08.037Z,102370.47
2022-08-11T01:10:53.743Z,102368.03
2022-08-11T01:13:38.990Z,102358.22
2022-08-11T01:16:17.896Z,102368.72
2022-08-11T01:19:05.006Z,102370.66
2022-08-11T01:22:13.005Z,102372.81
2022-08-11T01:24:57.367Z,102366.06
2022-08-11T01:27:44.753Z,102365.44
2022-08-11T01:30:41.119Z,102371.41
2022-08-11T01:33:44.521Z,102366.00
2022-08-11T01:36:42.325Z,102360.94
2022-08-11T01:39:37.281Z,102369.63
2022-08-11T01:42:47.535Z,102371.03
2022-08-11T01:45:26.513Z,102361.41
2022-08-11T01:48:03.407Z,102370.06
2022-08-11T01:51:00.680Z,102371.25
2022-08-11T01:53:51.575Z,102369.84
2022-08-11T01:56:23.965Z,102373.13
2022-08-11T01:59:07.347Z,102373.88
2022-08-11T02:01:36.644Z,102368.78
2022-08-11T02:04:31.623Z,102371.16
2022-08-11T02:07:08.815Z,102365.44
2022-08-11T02:10:01.734Z,102369.72
2022-08-11T02:12:42.097Z,102360.47
2022-08-11T02:15:29.169Z,102363.06
2022-08-11T02:18:06.602Z,102360.66
2022-08-11T02:21:02.813Z,102369.09
2022-08-11T02:24:06.579Z,102363.59
2022-08-11T02:26:45.251Z,102369.97
2022-08-11T02:29:32.381Z,102366.88
2022-08-11T02:32:35.214Z,102374.44
2022-08-11T02:35:28.559Z,102374.75
2022-08-11T02:38:08.736Z,102370.59
2022-08-11T02:40:41.034Z,102367.63
2022-08-11T02:43:18.104Z,102370.22
2022-08-11T02:45:49.993Z,102357.00
2022-08-11T02:49:12.051Z,102363.31
2022-08-11T02:51:53.787Z,102358.66
2022-08-11T02:54:32.782Z,102353.91
2022-08-11T02:57:13.940Z,102349.69
2022-08-11T02:59:50.254Z,102350.56
2022-08-11T03:02:16.721Z,102352.72
2022-08-11T03:04:55.777Z,102362.66
2022-08-11T03:07:29.646Z,102356.09
2022-08-11T03:10:23.486Z,102357.91
2022-08-11T03:13:15.662Z,102362.78
2022-08-11T03:16:14.632Z,102365.38
2022-08-11T03:18:57.319Z,102363.06
2022-08-11T03:22:01.443Z,102356.59
2022-08-11T03:24:44.912Z,102354.22
2022-08-11T03:27:36.839Z,102356.59
2022-08-11T03:30:10.359Z,102354.00
2022-08-11T03:33:27.331Z,102357.66
2022-08-11T03:36:12.595Z,102356.25
2022-08-11T03:39:06.087Z,102356.44
2022-08-11T03:42:23.479Z,102353.28
2022-08-11T03:45:03.491Z,102353.28
2022-08-11T03:48:01.053Z,102354.59
2022-08-11T03:50:39.684Z,102355.50
2022-08-11T03:53:14.964Z,102351.13
2022-08-11T03:56:06.424Z,102360.25
2022-08-11T03:58:57.415Z,102358.94
2022-08-11T04:01:38.642Z,102357.34
2022-08-11T04:04:18.697Z,102357.91
2022-08-11T04:07:17.680Z,102352.41
2022-08-11T04:09:50.390Z,102359.22
2022-08-11T04:12:35.513Z,102363.75
2022-08-11T04:15:57.800Z,102352.69
2022-08-11T04:18:45.317Z,102359.88
2022-08-11T04:21:36.685Z,102364.41
2022-08-11T04:24:34.972Z,102355.97
2022-08-11T04:27:19.252Z,102359.09
2022-08-11T04:30:05.723Z,102346.00
2022-08-11T04:32:41.249Z,102351.00
2022-08-11T04:35:33.302Z,102356.16
2022-08-11T04:38:11.800Z,102357.91
2022-08-11T04:41:16.363Z,102354.78
2022-08-11T04:44:11.225Z,102364.22
2022-08-11T04:47:05.683Z,102359.53
2022-08-11T04:50:19.118Z,102364.41
2022-08-11T04:53:25.001Z,102356.63
2022-08-11T04:56:35.673Z,102361.69
2022-08-11T04:59:39.395Z,102357.78
2022-08-11T05:02:36.783Z,102366.16
2022-08-11T05:05:31.078Z,102361.81
2022-08-11T05:08:37.041Z,102364.72
2022-08-11T05:11:45.559Z,102361.59
2022-08-11T05:14:47.113Z,102360.47
2022-08-11T05:17:34.840Z,102365.19
2022-08-11T05:20:19.829Z,102364.75
2022-08-11T05:23:08.380Z,102363.88
2022-08-11T05:26:45.124Z,102371.41
2022-08-11T05:29:20.154Z,102364.44
2022-08-11T05:32:17.775Z,102363.00
2022-08-11T05:34:50.090Z,102369.78
2022-08-11T05:37:27.459Z,102367.09
2022-08-11T05:40:17.435Z,102370.69
2022-08-11T05:43:08.716Z,102364.66
2022-08-11T05:46:03.826Z,102365.28
2022-08-11T05:48:54.422Z,102366.81
2022-08-11T05:51:52.482Z,102368.72
2022-08-11T05:54:41.185Z,102366.09
2022-08-11T05:57:07.846Z,102366.66
2022-08-11T05:59:34.596Z,102365.94
2022-08-11T06:02:06.207Z,102370.44
2022-08-11T06:04:33.632Z,102369.47
2022-08-11T06:07:09.872Z,102370.38
2022-08-11T06:09:39.274Z,102374.94
2022-08-11T06:12:11.084Z,102378.81
2022-08-11T06:14:43.111Z,102374.63
2022-08-11T06:17:10.148Z,102368.22
2022-08-11T06:19:39.948Z,102376.53
2022-08-11T06:22:08.549Z,102372.47
2022-08-11T06:24:36.740Z,102378.13
2022-08-11T06:27:13.137Z,102376.00
2022-08-11T06:29:54.740Z,102382.47
2022-08-11T06:32:27.987Z,102374.13
2022-08-11T06:35:19.988Z,102370.78
2022-08-11T06:37:55.547Z,102378.34
2022-08-11T06:40:30.153Z,102377.13
2022-08-11T06:43:24.492Z,102380.84
2022-08-11T06:46:04.486Z,102369.44
2022-08-11T06:48:33.027Z,102372.25
2022-08-11T06:51:15.109Z,102378.25
2022-08-11T06:54:03.721Z,102380.16
2022-08-11T06:57:18.619Z,102371.69
2022-08-11T06:59:59.520Z,102377.03
2022-08-11T07:02:43.425Z,102379.91
2022-08-11T07:05:23.638Z,102378.78
2022-08-11T07:08:34.021Z,102384.47
2022-08-11T07:12:00.423Z,102381.53
2022-08-11T07:14:46.811Z,102385.16
2022-08-11T07:17:17.338Z,102388.16
2022-08-11T07:20:14.550Z,102385.44
2022-08-11T07:23:03.224Z,102386.63
2022-08-11T07:25:48.208Z,102383.72
2022-08-11T07:28:37.339Z,102382.13
2022-08-11T07:31:29.202Z,102374.78
2022-08-11T07:34:05.845Z,102386.94
2022-08-11T07:36:39.467Z,102390.91
2022-08-11T07:39:09.787Z,102387.13
2022-08-11T07:41:36.403Z,102385.25
2022-08-11T07:44:09.247Z,102391.69
2022-08-11T07:47:02.146Z,102382.41
2022-08-11T07:49:49.747Z,102386.50
2022-08-11T07:52:33.669Z,102386.34
2022-08-11T07:55:03.839Z,102384.41
2022-08-11T07:58:14.278Z,102383.19
2022-08-11T08:01:01.702Z,102389.19
2022-08-11T08:03:54.807Z,102390.50
2022-08-11T08:06:40.392Z,102390.03
2022-08-11T08:09:25.987Z,102387.75
2022-08-11T08:12:11.132Z,102383.78
2022-08-11T08:14:56.673Z,102385.50
2022-08-11T08:17:42.277Z,102382.03
2022-08-11T08:20:12.854Z,102391.22
2022-08-11T08:22:41.896Z,102390.47
2022-08-11T08:25:11.002Z,102389.72
2022-08-11T08:27:43.571Z,102398.16
2022-08-11T08:30:29.292Z,102380.66
2022-08-11T08:32:57.776Z,102386.28
2022-08-11T08:35:24.426Z,102385.97
2022-08-11T08:37:52.909Z,102380.03
2022-08-11T08:40:19.469Z,102380.72
2022-08-11T08:42:59.012Z,102383.69
2022-08-11T08:45:27.289Z,102382.03
2022-08-11T08:48:00.206Z,102381.81
2022-08-11T08:50:49.448Z,102383.78
2022-08-11T08:53:22.070Z,102374.97
2022-08-11T08:55:50.753Z,102378.91
2022-08-11T08:58:19.703Z,102380.88
2022-08-11T09:00:47.254Z,102380.28
2022-08-11T09:03:38.922Z,102376.63
2022-08-11T09:06:00.888Z,102368.22
2022-08-11T09:08:28.488Z,102364.81
2022-08-11T09:11:14.615Z,102371.53
2022-08-11T09:13:44.381Z,102371.69
2022-08-11T09:16:11.957Z,102363.34
2022-08-11T09:18:39.525Z,102362.69
2022-08-11T09:21:07.205Z,102366.72
2022-08-11T09:24:12.825Z,102369.97
2022-08-11T09:26:57.355Z,102360.16
2022-08-11T09:29:23.920Z,102353.22
2022-08-11T09:31:50.853Z,102358.69
2022-08-11T09:34:17.366Z,102357.34
2022-08-11T09:37:02.874Z,102356.97
2022-08-11T09:39:49.104Z,102351.81
2022-08-11T09:42:23.351Z,102351.75
2022-08-11T09:44:52.728Z,102344.72
2022-08-11T09:47:30.132Z,102343.22
2022-08-11T09:50:01.294Z,102339.13
2022-08-11T09:52:30.159Z,102338.84
2022-08-11T09:54:56.986Z,102334.38
2022-08-11T09:57:42.088Z,102333.50
2022-08-11T10:00:13.354Z,102331.41
2022-08-11T10:02:46.411Z,102334.09
2022-08-11T10:05:34.112Z,102331.03
2022-08-11T10:08:01.461Z,102323.38
2022-08-11T10:10:28.434Z,102328.69
2022-08-11T10:13:04.420Z,102323.53
2022-08-11T10:15:34.712Z,102314.25
2022-08-11T10:18:28.519Z,102308.78
2022-08-11T10:21:11.825Z,102314.28
2022-08-11T10:24:00.927Z,102311.41
2022-08-11T10:26:51.528Z,102302.41
2022-08-11T10:29:59.647Z,102297.59
2022-08-11T10:32:58.536Z,102301.56
2022-08-11T10:35:28.776Z,102303.91
2022-08-11T10:38:15.741Z,102299.84
2022-08-11T10:40:46.122Z,102296.25
2022-08-11T10:43:14.463Z,102294.09
2022-08-11T10:46:18.779Z,102286.44
2022-08-11T10:48:56.674Z,102290.34
2022-08-11T10:51:51.096Z,102286.09
2022-08-11T10:54:39.356Z,102283.22
2022-08-11T10:57:24.567Z,102281.03
2022-08-11T10:59:51.208Z,102278.25
2022-08-11T11:02:18.977Z,102282.28
2022-08-11T11:05:09.223Z,102278.13
2022-08-11T11:07:55.432Z,102277.63
2022-08-11T11:10:21.916Z,102276.28
2022-08-11T11:13:14.607Z,102271.03
2022-08-11T11:16:03.310Z,102265.25
2022-08-11T11:18:35.970Z,102263.88
2022-08-11T11:21:10.885Z,102263.34
2022-08-11T11:23:41.374Z,102265.06
2022-08-11T11:26:10.449Z,102261.25
2022-08-11T11:28:55.805Z,102261.81
2022-08-11T11:31:36.561Z,102256.59
2022-08-11T11:34:17.043Z,102260.00
2022-08-11T11:36:54.206Z,102254.25
2022-08-11T11:39:25.591Z,102253.00
2022-08-11T11:41:56.421Z,102255.84
2022-08-11T11:44:24.957Z,102259.56
2022-08-11T11:46:51.813Z,102261.38
2022-08-11T11:51:54.913Z,102260.88
2022-08-11T11:54:23.885Z,102251.97
2022-08-11T11:56:53.202Z,102253.47
2022-08-11T11:59:40.404Z,102259.50
2022-08-11T12:02:12.212Z,102244.53
2022-08-11T12:04:43.205Z,102246.41
2022-08-11T12:07:28.872Z,102247.41
2022-08-11T12:09:55.969Z,102240.50
2022-08-11T12:12:41.156Z,102243.91
2022-08-11T12:15:08.531Z,102245.81
2022-08-11T12:17:35.864Z,102240.31
2022-08-11T12:20:04.304Z,102247.47
2022-08-11T12:22:49.831Z,102241.38
2022-08-11T12:25:35.997Z,102243.28
2022-08-11T12:28:02.696Z,102233.06
2022-08-11T12:30:29.597Z,102231.84
2022-08-11T12:32:57.163Z,102219.44
2022-08-11T12:35:23.621Z,102222.94
2022-08-11T12:37:54.253Z,102222.69
2022-08-11T12:41:13.788Z,102221.78
2022-08-11T12:43:57.186Z,102216.91
2022-08-11T12:46:27.849Z,102201.41
2022-08-11T12:49:17.462Z,102206.06
2022-08-11T12:52:12.225Z,102194.09
2022-08-11T12:55:12.570Z,102199.84
2022-08-11T12:58:01.935Z,102206.31
2022-08-11T13:00:48.595Z,102201.91
2022-08-11T13:03:34.152Z,102192.81
2022-08-11T13:06:02.645Z,102198.88
2022-08-11T13:08:30.119Z,102194.13
2022-08-11T13:11:17.317Z,102192.41
2022-08-11T13:13:54.301Z,102189.22
2022-08-11T13:16:25.402Z,102192.50
2022-08-11T13:18:53.499Z,102166.28
2022-08-11T13:21:21.554Z,102168.88
2022-08-11T13:24:01.985Z,102174.63
2022-08-11T13:26:46.818Z,102171.72
2022-08-11T13:29:18.266Z,102166.06
2022-08-11T13:31:45.802Z,102168.50
2022-08-11T13:34:12.332Z,102169.00
2022-08-11T13:36:39.060Z,102176.19
2022-08-11T13:39:05.632Z,102167.53
2022-08-11T13:41:39.273Z,102170.53
2022-08-11T13:44:07.199Z,102166.66
2022-08-11T13:46:34.213Z,102176.03
2022-08-11T13:49:02.274Z,102167.94
2022-08-11T13:51:34.859Z,102167.94
2022-08-11T13:54:10.313Z,102159.63
2022-08-11T13:56:41.111Z,102157.66
2022-08-11T13:59:08.726Z,102153.41
2022-08-11T14:02:20.091Z,102146.31
2022-08-11T14:04:39.662Z,102154.25
2022-08-11T14:07:07.967Z,102142.81
2022-08-11T14:09:40.925Z,102144.13
2022-08-11T14:12:29.527Z,102139.16
2022-08-11T14:15:07.593Z,102138.59
2022-08-11T14:17:48.089Z,102136.84
2022-08-11T14:20:38.712Z,102137.13
2022-08-11T14:23:04.715Z,102131.91
2022-08-11T14:25:59.721Z,102125.66
2022-08-11T14:28:31.071Z,102129.09
2022-08-11T14:31:02.111Z,102124.44
2022-08-11T14:33:58.257Z,102121.66
2022-08-11T14:36:17.295Z,102114.53
2022-08-11T14:38:44.218Z,102129.31
2022-08-11T14:41:29.788Z,102121.44
2022-08-11T14:44:15.501Z,102120.72
2022-08-11T14:47:01.644Z,102113.34
2022-08-11T14:49:29.570Z,102126.28
2022-08-11T14:51:57.690Z,102111.16
2022-08-11T14:54:48.143Z,102113.28
2022-08-11T14:57:16.116Z,102103.66
2022-08-11T14:59:43.692Z,102118.06
2022-08-11T15:02:29.758Z,102100.84
2022-08-11T15:04:58.627Z,102106.00
2022-08-11T15:07:30.131Z,102107.41
2022-08-11T15:10:12.769Z,102098.38
2022-08-11T15:12:42.041Z,102113.69
2022-08-11T15:15:28.182Z,102102.41
2022-08-11T15:17:56.890Z,102097.31
2022-08-11T15:20:42.871Z,102100.16
2022-08-11T15:23:28.454Z,102089.75
2022-08-11T15:26:08.038Z,102102.44
2022-08-11T15:29:01.226Z,102094.50
2022-08-11T15:31:49.338Z,102080.03
2022-08-11T15:34:36.899Z,102078.75
2022-08-11T15:37:26.461Z,102078.22
2022-08-11T15:40:41.114Z,102075.47
2022-08-11T15:43:42.319Z,102071.34
2022-08-11T15:46:26.128Z,102082.75
2022-08-11T15:48:58.574Z,102062.97
2022-08-11T15:52:00.406Z,102069.03
2022-08-11T15:54:31.232Z,102071.78
2022-08-11T15:56:58.774Z,102057.91
2022-08-11T15:59:44.118Z,102069.47
2022-08-11T16:02:34.407Z,102059.66
2022-08-11T16:05:04.121Z,102051.59
2022-08-11T16:07:38.477Z,102055.66
2022-08-11T16:10:18.971Z,102050.50
2022-08-11T16:13:06.000Z,102057.22
2022-08-11T16:15:52.159Z,102049.75
2022-08-11T16:18:26.247Z,102053.34
2022-08-11T16:20:55.382Z,102043.72
2022-08-11T16:23:22.685Z,102036.41
2022-08-11T16:27:01.289Z,102037.13
2022-08-11T16:28:38.997Z,102037.63
2022-08-11T16:31:10.713Z,102042.59
2022-08-11T16:33:51.143Z,102033.19
2022-08-11T16:36:38.012Z,102037.44
2022-08-11T16:39:05.720Z,102038.97
2022-08-11T16:41:52.382Z,102027.34
2022-08-11T16:44:38.566Z,102027.47
2022-08-11T16:47:07.175Z,102030.53
2022-08-11T16:49:36.663Z,102021.81
2022-08-11T16:52:05.419Z,102025.72
2022-08-11T16:54:35.448Z,102022.81
2022-08-11T16:57:23.966Z,102014.88
2022-08-11T16:59:56.073Z,102019.03
2022-08-11T17:02:43.936Z,102020.44
2022-08-11T17:05:35.106Z,102026.53
2022-08-11T17:08:25.823Z,102026.66
2022-08-11T17:11:20.987Z,102018.13
2022-08-11T17:13:50.860Z,102011.00
2022-08-11T17:16:22.809Z,102017.47
2022-08-11T17:18:56.810Z,102015.19
2022-08-11T17:21:33.806Z,102010.59
2022-08-11T17:24:09.230Z,102004.53
2022-08-11T17:26:58.688Z,102001.25
2022-08-11T17:29:53.974Z,102011.53
2022-08-11T17:33:00.753Z,102007.22
2022-08-11T17:35:39.699Z,101990.03
2022-08-11T17:38:12.619Z,101999.91
2022-08-11T17:41:02.219Z,101992.16
2022-08-11T17:43:47.797Z,102001.38
2022-08-11T17:46:34.397Z,101992.06
2022-08-11T17:49:02.035Z,101994.69
2022-08-11T17:51:48.138Z,101998.28
2022-08-11T17:54:33.731Z,101997.19
2022-08-11T17:57:21.517Z,101989.50
2022-08-11T17:59:57.905Z,102003.88
2022-08-11T18:02:55.238Z,102005.13
2022-08-11T18:05:24.887Z,102006.91
2022-08-11T18:08:12.388Z,102004.47
2022-08-11T18:10:57.899Z,102004.47
2022-08-11T18:13:44.020Z,102008.66
2022-08-11T18:16:29.510Z,102007.72
2022-08-11T18:19:14.667Z,102008.72
2022-08-11T18:22:15.103Z,102007.56
2022-08-11T18:25:06.034Z,102003.50
2022-08-11T18:27:52.712Z,102005.66
2022-08-11T18:30:38.335Z,102007.91
2022-08-11T18:33:50.360Z,102007.22
2022-08-11T18:36:32.195Z,102007.16
2022-08-11T18:39:18.592Z,102008.31
2022-08-11T18:42:04.687Z,102010.34
2022-08-11T18:44:51.152Z,102014.06
2022-08-11T18:47:38.936Z,102021.28
2022-08-11T18:50:38.594Z,102018.13
2022-08-11T18:53:25.557Z,102022.25
2022-08-11T18:56:10.689Z,102026.09
2022-08-11T18:58:57.207Z,102020.03
2022-08-11T19:01:46.009Z,102024.72
2022-08-11T19:04:31.877Z,102029.63
2022-08-11T19:07:23.461Z,102019.16
2022-08-11T19:10:08.980Z,102019.69
2022-08-11T19:12:57.890Z,102025.16
2022-08-11T19:15:43.505Z,102032.22
2022-08-11T19:18:35.534Z,102021.94
2022-08-11T19:21:24.198Z,102025.47
2022-08-11T19:24:11.308Z,102029.91
2022-08-11T19:26:56.939Z,102026.25
2022-08-11T19:30:08.040Z,102027.22
2022-08-11T19:32:49.058Z,102036.56
2022-08-11T19:35:34.705Z,102038.00
2022-08-11T19:38:20.341Z,102034.78
2022-08-11T19:41:06.824Z,102043.31
2022-08-11T19:43:52.934Z,102048.03
2022-08-11T19:46:40.065Z,102051.75
2022-08-11T19:49:25.679Z,102054.53
2022-08-11T19:52:10.822Z,102058.78
2022-08-11T19:54:56.402Z,102058.53
2022-08-11T19:57:43.413Z,102055.75
2022-08-11T20:00:39.440Z,102052.31
2022-08-11T20:03:27.803Z,102059.28
2022-08-11T20:06:15.054Z,102060.53
2022-08-11T20:09:01.799Z,102056.28
2022-08-11T20:11:50.965Z,102059.28
2022-08-11T20:14:39.215Z,102061.78
2022-08-11T20:17:26.497Z,102060.75
2022-08-11T20:20:11.690Z,102063.75
2022-08-11T20:22:57.514Z,102064.22
2022-08-11T20:25:43.183Z,102072.44
2022-08-11T20:28:29.899Z,102074.56
2022-08-11T20:31:15.073Z,102066.63
2022-08-11T20:34:01.351Z,102063.00
2022-08-11T20:36:53.916Z,102059.06
2022-08-11T20:39:40.634Z,102059.97
2022-08-11T20:42:30.304Z,102063.25
2022-08-11T20:45:17.493Z,102065.16
2022-08-11T20:48:08.325Z,102067.13
2022-08-11T20:50:59.918Z,102070.03
2022-08-11T20:53:45.052Z,102078.50
2022-08-11T20:56:30.266Z,102071.13
2022-08-11T20:59:17.874Z,102074.06
2022-08-11T21:02:05.455Z,102078.56
2022-08-11T21:04:55.373Z,102068.59
2022-08-11T21:07:42.624Z,102073.63
2022-08-11T21:10:29.543Z,102076.47
2022-08-11T21:13:25.687Z,102074.72
2022-08-11T21:16:23.360Z,102082.81
2022-08-11T21:19:13.665Z,102078.38
2022-08-11T21:22:00.018Z,102082.28
2022-08-11T21:24:48.630Z,102085.19
2022-08-11T21:27:35.241Z,102096.41
2022-08-11T21:30:21.039Z,102095.56
2022-08-11T21:33:06.076Z,102089.16
2022-08-11T21:35:51.813Z,102086.97
2022-08-11T21:38:36.860Z,102081.94
2022-08-11T21:41:22.713Z,102076.75
2022-08-11T21:44:08.742Z,102084.66
2022-08-11T21:46:55.250Z,102084.31
2022-08-11T21:49:42.103Z,102090.16
2022-08-11T21:52:27.775Z,102086.88
2022-08-11T21:55:13.441Z,102093.31
2022-08-11T21:57:59.185Z,102084.50
2022-08-11T22:00:44.864Z,102092.78
2022-08-11T22:03:30.106Z,102087.03
2022-08-11T22:06:21.527Z,102093.03
2022-08-11T22:09:06.328Z,102092.63
2022-08-11T22:11:51.423Z,102092.56
2022-08-11T22:14:56.622Z,102088.25
2022-08-11T22:17:41.738Z,102090.16
2022-08-11T22:20:30.064Z,102084.94
2022-08-11T22:23:16.734Z,102090.78
2022-08-11T22:26:07.133Z,102085.91
2022-08-11T22:28:56.666Z,102084.19
2022-08-11T22:31:42.313Z,102083.63
2022-08-11T22:34:28.012Z,102084.53
2022-08-11T22:37:27.331Z,102085.75
2022-08-11T22:40:12.890Z,102092.16
2022-08-11T22:42:58.033Z,102086.72
2022-08-11T22:45:42.913Z,102083.81
2022-08-11T22:48:28.539Z,102088.56
2022-08-11T22:51:14.116Z,102083.41
2022-08-11T22:53:59.806Z,102091.03
2022-08-11T22:56:46.314Z,102097.03
2022-08-11T22:59:31.924Z,102092.16
2022-08-11T23:02:17.288Z,102091.06
2022-08-11T23:05:02.335Z,102094.44
2022-08-11T23:07:51.365Z,102091.34
2022-08-11T23:10:38.827Z,102088.44
2022-08-11T23:13:24.916Z,102091.53
2022-08-11T23:16:11.514Z,102090.75
2022-08-11T23:18:56.788Z,102090.81
2022-08-11T23:21:42.022Z,102094.59
2022-08-11T23:24:27.870Z,102088.97
2022-08-11T23:27:13.198Z,102088.75
2022-08-11T23:29:59.433Z,102085.56
2022-08-11T23:32:45.471Z,102083.28
2022-08-11T23:35:40.229Z,102085.91
2022-08-11T23:38:36.776Z,102079.56
2022-08-11T23:41:22.540Z,102078.59
2022-08-11T23:44:08.219Z,102072.41
2022-08-11T23:46:53.831Z,102079.75
2022-08-11T23:49:38.861Z,102072.38
2022-08-11T23:52:23.889Z,102073.88
2022-08-11T23:55:08.968Z,102072.88
2022-08-11T23:57:54.559Z,102069.84
